createdAt,value
2023-05-18T00:02:23.423Z,6.90
2023-05-18T00:04:51.377Z,6.80
2023-05-18T00:07:19.304Z,6.80
2023-05-18T00:09:47.172Z,6.70
2023-05-18T00:12:15.094Z,6.70
2023-05-18T00:14:42.887Z,6.70
2023-05-18T00:17:12.178Z,6.60
2023-05-18T00:19:40.583Z,6.60
2023-05-18T00:22:08.679Z,6.60
2023-05-18T00:24:37.224Z,6.60
2023-05-18T00:27:05.497Z,6.50
2023-05-18T00:29:33.294Z,6.50
2023-05-18T00:32:01.196Z,6.40
2023-05-18T00:34:30.678Z,6.40
2023-05-18T00:36:58.472Z,6.30
2023-05-18T00:39:26.331Z,6.30
2023-05-18T00:41:54.190Z,6.30
2023-05-18T00:44:22.951Z,6.30
2023-05-18T00:46:51.028Z,6.20
2023-05-18T00:49:19.330Z,6.20
2023-05-18T00:51:48.872Z,6.20
2023-05-18T00:54:17.514Z,6.20
2023-05-18T00:56:46.626Z,6.20
2023-05-18T00:59:15.380Z,6.20
2023-05-18T01:01:46.431Z,6.20
2023-05-18T01:04:15.712Z,6.10
2023-05-18T01:06:46.242Z,6.10
2023-05-18T01:09:16.189Z,6.00
2023-05-18T01:11:54.617Z,6.00
2023-05-18T01:14:30.619Z,5.90
2023-05-18T01:17:06.726Z,5.90
2023-05-18T01:20:01.351Z,5.90
2023-05-18T01:22:39.239Z,5.90
2023-05-18T01:25:19.524Z,5.90
2023-05-18T01:27:50.061Z,5.80
2023-05-18T01:30:18.262Z,5.70
2023-05-18T01:32:47.323Z,5.70
2023-05-18T01:35:15.144Z,5.70
2023-05-18T01:37:42.970Z,5.60
2023-05-18T01:40:11.108Z,5.60
2023-05-18T01:42:45.637Z,5.60
2023-05-18T01:45:21.853Z,5.50
2023-05-18T01:47:57.498Z,5.60
2023-05-18T01:50:40.931Z,5.50
2023-05-18T01:53:15.581Z,5.50
2023-05-18T01:55:44.831Z,5.50
2023-05-18T01:58:14.717Z,5.50
2023-05-18T02:00:44.311Z,5.40
2023-05-18T02:03:14.069Z,5.40
2023-05-18T02:05:42.055Z,5.40
2023-05-18T02:08:09.889Z,5.40
2023-05-18T02:10:37.739Z,5.50
2023-05-18T02:13:05.606Z,5.50
2023-05-18T02:15:33.413Z,5.50
2023-05-18T02:18:02.874Z,5.50
2023-05-18T02:20:33.343Z,5.30
2023-05-18T02:23:01.246Z,5.30
2023-05-18T02:25:29.314Z,5.30
2023-05-18T02:27:57.277Z,5.30
2023-05-18T02:30:25.133Z,5.30
2023-05-18T02:32:52.970Z,5.30
2023-05-18T02:35:22.127Z,5.20
2023-05-18T02:37:50.004Z,5.20
2023-05-18T02:40:18.140Z,5.20
2023-05-18T02:42:46.203Z,5.20
2023-05-18T02:45:14.065Z,5.20
2023-05-18T02:47:43.828Z,5.20
2023-05-18T02:50:12.209Z,5.20
2023-05-18T02:52:41.585Z,5.10
2023-05-18T02:55:10.037Z,5.00
2023-05-18T02:57:37.877Z,5.00
2023-05-18T03:00:11.481Z,5.00
2023-05-18T03:02:40.221Z,5.00
2023-05-18T03:05:09.579Z,5.00
2023-05-18T03:07:37.519Z,5.10
2023-05-18T03:10:07.872Z,5.10
2023-05-18T03:12:35.681Z,5.10
2023-05-18T03:15:03.882Z,5.10
2023-05-18T03:17:31.705Z,5.10
2023-05-18T03:19:59.540Z,5.20
2023-05-18T03:22:27.427Z,5.10
2023-05-18T03:24:55.377Z,5.10
2023-05-18T03:27:25.825Z,5.10
2023-05-18T03:29:54.107Z,5.10
2023-05-18T03:32:21.866Z,5.10
2023-05-18T03:34:51.028Z,5.10
2023-05-18T03:37:18.852Z,5.10
2023-05-18T03:39:46.811Z,5.10
2023-05-18T03:42:14.638Z,5.10
2023-05-18T03:44:43.837Z,5.00
2023-05-18T03:47:11.615Z,5.00
2023-05-18T03:49:39.416Z,5.00
2023-05-18T03:52:08.195Z,5.00
2023-05-18T03:54:36.310Z,5.00
2023-05-18T03:57:04.193Z,5.10
2023-05-18T03:59:32.001Z,5.10
2023-05-18T04:02:01.338Z,5.20
2023-05-18T04:04:30.797Z,5.20
2023-05-18T04:06:58.583Z,5.20
2023-05-18T04:09:27.966Z,5.30
2023-05-18T04:11:55.877Z,5.30
2023-05-18T04:14:24.605Z,5.20
2023-05-18T04:16:52.863Z,5.20
2023-05-18T04:19:22.883Z,5.30
2023-05-18T04:21:50.753Z,5.30
2023-05-18T04:24:19.389Z,5.40
2023-05-18T04:26:47.201Z,5.50
2023-05-18T04:29:15.459Z,5.50
2023-05-18T04:31:44.896Z,5.70
2023-05-18T04:34:13.627Z,5.70
2023-05-18T04:36:44.229Z,5.80
2023-05-18T04:39:12.607Z,5.90
2023-05-18T04:41:42.092Z,5.90
2023-05-18T04:44:10.405Z,6.00
2023-05-18T04:46:40.668Z,6.10
2023-05-18T04:49:09.132Z,6.20
2023-05-18T04:51:36.984Z,6.30
2023-05-18T04:54:08.938Z,6.40
2023-05-18T04:56:36.936Z,6.50
2023-05-18T04:59:04.911Z,6.60
2023-05-18T05:01:32.752Z,6.80
2023-05-18T05:04:00.683Z,6.80
2023-05-18T05:06:28.510Z,6.90
2023-05-18T05:08:56.308Z,6.90
2023-05-18T05:11:25.615Z,7.00
2023-05-18T05:13:53.781Z,7.20
2023-05-18T05:16:21.651Z,7.20
2023-05-18T05:18:49.491Z,7.30
2023-05-18T05:21:17.384Z,7.30
2023-05-18T05:23:45.348Z,7.40
2023-05-18T05:26:13.166Z,7.40
2023-05-18T05:28:42.326Z,7.50
2023-05-18T05:31:10.277Z,7.60
2023-05-18T05:33:38.236Z,7.70
2023-05-18T05:36:06.501Z,7.80
2023-05-18T05:38:34.505Z,7.90
2023-05-18T05:41:02.774Z,8.00
2023-05-18T05:43:30.586Z,8.10
2023-05-18T05:45:59.734Z,8.20
2023-05-18T05:48:27.514Z,8.40
2023-05-18T05:50:55.342Z,8.50
2023-05-18T05:53:23.481Z,8.60
2023-05-18T05:55:51.311Z,8.70
2023-05-18T05:58:19.302Z,8.90
2023-05-18T06:00:47.288Z,9.00
2023-05-18T06:03:16.413Z,9.20
2023-05-18T06:05:44.253Z,9.30
2023-05-18T06:08:12.087Z,9.40
2023-05-18T06:10:41.195Z,9.50
2023-05-18T06:13:09.125Z,9.60
2023-05-18T06:15:36.921Z,9.70
2023-05-18T06:18:05.004Z,9.80
2023-05-18T06:20:34.218Z,9.90
2023-05-18T06:23:02.033Z,10.10
2023-05-18T06:25:30.061Z,10.20
2023-05-18T06:27:58.030Z,10.30
2023-05-18T06:30:25.849Z,10.50
2023-05-18T06:32:53.643Z,10.60
2023-05-18T06:35:21.758Z,10.70
2023-05-18T06:37:50.911Z,10.80
2023-05-18T06:40:18.757Z,10.90
2023-05-18T06:42:46.611Z,11.00
2023-05-18T06:45:14.446Z,11.20
2023-05-18T06:47:42.863Z,11.20
2023-05-18T06:50:11.332Z,11.30
2023-05-18T06:52:39.188Z,11.40
2023-05-18T06:55:09.533Z,11.50
2023-05-18T06:57:37.364Z,11.60
2023-05-18T07:00:07.588Z,11.70
2023-05-18T07:02:35.515Z,11.80
2023-05-18T07:05:05.535Z,11.80
2023-05-18T07:07:33.368Z,11.90
2023-05-18T07:10:01.213Z,12.00
2023-05-18T07:12:30.332Z,12.00
2023-05-18T07:14:58.172Z,12.00
2023-05-18T07:17:26.121Z,12.10
2023-05-18T07:19:53.917Z,12.20
2023-05-18T07:22:21.683Z,12.40
2023-05-18T07:24:49.481Z,12.50
2023-05-18T07:27:17.300Z,12.60
2023-05-18T07:29:46.556Z,12.70
2023-05-18T07:32:14.361Z,12.90
2023-05-18T07:34:43.412Z,13.00
2023-05-18T07:37:11.216Z,13.20
2023-05-18T07:39:39.001Z,13.40
2023-05-18T07:42:07.280Z,13.50
2023-05-18T07:44:35.147Z,13.60
2023-05-18T07:47:04.649Z,13.80
2023-05-18T07:49:32.556Z,13.90
2023-05-18T07:52:00.414Z,14.00
2023-05-18T07:54:28.227Z,14.10
2023-05-18T07:56:58.046Z,14.30
2023-05-18T07:59:27.547Z,14.20
2023-05-18T08:01:55.788Z,14.30
2023-05-18T08:04:25.077Z,14.40
2023-05-18T08:06:54.690Z,14.60
2023-05-18T08:09:22.882Z,14.80
2023-05-18T08:11:52.205Z,14.90
2023-05-18T08:14:20.089Z,15.00
2023-05-18T08:16:47.922Z,15.20
2023-05-18T08:19:16.181Z,15.40
2023-05-18T08:21:46.214Z,15.60
2023-05-18T08:24:14.077Z,15.70
2023-05-18T08:26:41.909Z,15.90
2023-05-18T08:29:10.568Z,16.10
2023-05-18T08:31:38.741Z,16.10
2023-05-18T08:34:07.610Z,16.20
2023-05-18T08:36:36.486Z,16.40
2023-05-18T08:39:05.941Z,16.50
2023-05-18T08:41:38.669Z,16.30
2023-05-18T08:44:12.618Z,16.30
2023-05-18T08:46:42.534Z,16.10
2023-05-18T08:49:11.451Z,15.90
2023-05-18T08:51:41.283Z,15.90
2023-05-18T08:54:12.681Z,15.90
2023-05-18T08:56:40.891Z,15.90
2023-05-18T08:59:09.805Z,16.00
2023-05-18T09:01:38.285Z,16.20
2023-05-18T09:04:07.121Z,16.40
2023-05-18T09:06:35.711Z,16.60
2023-05-18T09:09:05.336Z,16.60
2023-05-18T09:11:35.908Z,16.70
2023-05-18T09:14:03.970Z,16.80
2023-05-18T09:16:32.363Z,16.90
2023-05-18T09:19:00.652Z,16.90
2023-05-18T09:21:28.523Z,17.00
2023-05-18T09:23:56.466Z,17.00
2023-05-18T09:26:24.270Z,17.00
2023-05-18T09:28:55.197Z,17.00
2023-05-18T09:31:26.587Z,17.10
2023-05-18T09:33:54.649Z,17.00
2023-05-18T09:36:28.294Z,16.80
2023-05-18T09:38:56.110Z,16.60
2023-05-18T09:41:27.658Z,16.60
2023-05-18T09:43:56.822Z,17.00
2023-05-18T09:46:24.789Z,17.20
2023-05-18T09:48:56.062Z,17.00
2023-05-18T09:51:25.226Z,17.10
2023-05-18T09:53:55.425Z,17.30
2023-05-18T09:56:24.471Z,17.60
2023-05-18T09:58:52.382Z,17.80
2023-05-18T10:01:21.666Z,17.90
2023-05-18T10:03:49.722Z,18.00
2023-05-18T10:06:19.893Z,17.80
2023-05-18T10:08:47.938Z,17.60
2023-05-18T10:11:18.750Z,17.30
2023-05-18T10:13:46.876Z,17.10
2023-05-18T10:16:16.834Z,17.00
2023-05-18T10:18:46.912Z,17.00
2023-05-18T10:21:17.100Z,17.00
2023-05-18T10:23:49.017Z,16.80
2023-05-18T10:26:23.707Z,16.60
2023-05-18T10:28:54.206Z,16.50
2023-05-18T10:31:24.179Z,16.30
2023-05-18T10:33:54.092Z,16.20
2023-05-18T10:36:25.183Z,16.30
2023-05-18T10:38:53.503Z,16.30
2023-05-18T10:41:22.758Z,16.70
2023-05-18T10:43:51.622Z,17.00
2023-05-18T10:46:21.354Z,17.00
2023-05-18T10:48:51.291Z,16.80
2023-05-18T10:51:22.254Z,16.80
2023-05-18T10:53:51.376Z,16.80
2023-05-18T10:56:19.907Z,16.80
2023-05-18T10:58:48.608Z,16.90
2023-05-18T11:01:17.380Z,17.20
2023-05-18T11:03:45.744Z,17.50
2023-05-18T11:06:15.010Z,17.80
2023-05-18T11:08:50.887Z,18.00
2023-05-18T11:11:19.768Z,18.20
2023-05-18T11:13:50.485Z,18.50
2023-05-18T11:16:19.243Z,18.50
2023-05-18T11:18:49.237Z,18.50
2023-05-18T11:21:21.574Z,18.50
2023-05-18T11:24:16.598Z,18.60
2023-05-18T11:26:45.699Z,18.80
2023-05-18T11:29:21.493Z,19.00
2023-05-18T11:31:51.389Z,19.20
2023-05-18T11:34:40.693Z,19.30
2023-05-18T11:37:10.134Z,19.50
2023-05-18T11:39:48.003Z,19.50
2023-05-18T11:42:20.910Z,19.20
2023-05-18T11:44:54.270Z,19.30
2023-05-18T11:47:22.251Z,19.20
2023-05-18T11:49:53.050Z,19.30
2023-05-18T11:52:22.070Z,19.20
2023-05-18T11:54:53.561Z,18.90
2023-05-18T11:57:25.028Z,18.70
2023-05-18T11:59:56.766Z,18.60
2023-05-18T12:02:27.049Z,18.50
2023-05-18T12:04:56.582Z,18.40
2023-05-18T12:07:25.556Z,18.40
2023-05-18T12:09:59.176Z,18.40
2023-05-18T12:12:28.552Z,18.50
2023-05-18T12:14:58.222Z,18.50
2023-05-18T12:17:38.659Z,18.60
2023-05-18T12:20:08.432Z,18.50
2023-05-18T12:22:37.307Z,18.50
2023-05-18T12:25:07.891Z,18.50
2023-05-18T12:27:39.835Z,18.50
2023-05-18T12:30:11.784Z,18.70
2023-05-18T12:32:39.763Z,18.90
2023-05-18T12:35:09.364Z,19.00
2023-05-18T12:37:45.089Z,19.00
2023-05-18T12:40:17.027Z,19.10
2023-05-18T12:42:53.381Z,19.10
2023-05-18T12:45:23.789Z,19.10
2023-05-18T12:47:54.237Z,19.00
2023-05-18T12:50:22.716Z,18.90
2023-05-18T12:52:51.254Z,18.70
2023-05-18T12:55:22.525Z,18.60
2023-05-18T12:58:00.707Z,18.60
2023-05-18T13:00:28.550Z,18.70
2023-05-18T13:03:06.445Z,18.80
2023-05-18T13:05:34.431Z,18.80
2023-05-18T13:08:02.668Z,18.80
2023-05-18T13:10:33.210Z,18.80
2023-05-18T13:13:03.684Z,18.80
2023-05-18T13:15:35.601Z,18.70
2023-05-18T13:18:05.076Z,18.70
2023-05-18T13:20:36.441Z,18.60
2023-05-18T13:23:06.737Z,18.60
2023-05-18T13:25:35.964Z,18.40
2023-05-18T13:28:04.416Z,18.30
2023-05-18T13:30:32.822Z,18.30
2023-05-18T13:33:01.310Z,18.20
2023-05-18T13:35:29.669Z,18.20
2023-05-18T13:37:57.800Z,18.20
2023-05-18T13:40:25.938Z,18.40
2023-05-18T13:42:55.162Z,18.50
2023-05-18T13:45:23.171Z,18.70
2023-05-18T13:47:53.350Z,18.70
2023-05-18T13:50:22.788Z,18.80
2023-05-18T13:52:50.793Z,18.90
2023-05-18T13:55:18.909Z,18.90
2023-05-18T13:57:47.194Z,18.90
2023-05-18T14:00:17.451Z,18.90
2023-05-18T14:02:46.048Z,18.90
2023-05-18T14:05:14.469Z,18.90
2023-05-18T14:07:43.293Z,18.80
2023-05-18T14:10:12.646Z,18.80
2023-05-18T14:12:42.166Z,18.90
2023-05-18T14:15:11.378Z,18.90
2023-05-18T14:17:40.871Z,19.00
2023-05-18T14:20:10.004Z,18.90
2023-05-18T14:22:37.850Z,18.70
2023-05-18T14:25:06.539Z,18.50
2023-05-18T14:27:34.423Z,18.40
2023-05-18T14:30:02.270Z,18.30
2023-05-18T14:32:30.173Z,18.30
2023-05-18T14:34:59.375Z,18.30
2023-05-18T14:37:27.223Z,18.40
2023-05-18T14:39:54.992Z,18.20
2023-05-18T14:42:22.778Z,18.10
2023-05-18T14:44:50.635Z,18.00
2023-05-18T14:47:18.811Z,18.00
2023-05-18T14:49:46.619Z,18.00
2023-05-18T14:52:15.774Z,18.00
2023-05-18T14:54:43.568Z,18.00
2023-05-18T14:57:11.382Z,18.10
2023-05-18T14:59:39.187Z,18.20
2023-05-18T15:02:08.200Z,18.20
2023-05-18T15:04:36.198Z,18.30
2023-05-18T15:07:04.578Z,18.40
2023-05-18T15:09:33.771Z,18.50
2023-05-18T15:12:01.560Z,18.60
2023-05-18T15:14:29.380Z,18.60
2023-05-18T15:16:58.494Z,18.60
2023-05-18T15:19:26.389Z,18.50
2023-05-18T15:21:54.214Z,18.30
2023-05-18T15:24:22.000Z,18.10
2023-05-18T15:26:51.161Z,17.80
2023-05-18T15:29:19.029Z,17.60
2023-05-18T15:31:47.529Z,17.40
2023-05-18T15:34:15.384Z,17.30
2023-05-18T15:36:43.214Z,17.20
2023-05-18T15:39:11.025Z,17.10
2023-05-18T15:41:38.865Z,17.00
2023-05-18T15:44:08.090Z,17.00
2023-05-18T15:46:36.015Z,17.00
2023-05-18T15:49:04.526Z,17.00
2023-05-18T15:51:32.359Z,16.90
2023-05-18T15:54:01.438Z,16.70
2023-05-18T15:56:29.303Z,16.50
2023-05-18T15:58:57.093Z,16.40
2023-05-18T16:01:26.341Z,16.30
2023-05-18T16:03:54.252Z,16.20
2023-05-18T16:06:22.108Z,16.20
2023-05-18T16:08:49.956Z,16.10
2023-05-18T16:11:17.844Z,16.10
2023-05-18T16:13:45.626Z,16.10
2023-05-18T16:16:14.106Z,16.10
2023-05-18T16:18:43.663Z,16.10
2023-05-18T16:21:11.482Z,16.00
2023-05-18T16:23:39.307Z,16.00
2023-05-18T16:26:07.118Z,16.10
2023-05-18T16:28:35.528Z,16.00
2023-05-18T16:31:04.616Z,16.00
2023-05-18T16:33:32.455Z,16.10
2023-05-18T16:36:01.846Z,16.10
2023-05-18T16:38:31.176Z,16.10
2023-05-18T16:40:59.071Z,16.10
2023-05-18T16:43:26.880Z,16.10
2023-05-18T16:45:54.849Z,16.10
2023-05-18T16:48:22.767Z,16.10
2023-05-18T16:50:50.644Z,16.10
2023-05-18T16:53:19.827Z,16.00
2023-05-18T16:55:47.634Z,15.90
2023-05-18T16:58:16.130Z,15.90
2023-05-18T17:00:43.939Z,15.90
2023-05-18T17:03:11.859Z,15.90
2023-05-18T17:05:39.710Z,15.80
2023-05-18T17:08:07.531Z,15.80
2023-05-18T17:10:36.741Z,15.70
2023-05-18T17:13:04.821Z,15.70
2023-05-18T17:15:33.055Z,15.60
2023-05-18T17:18:01.328Z,15.60
2023-05-18T17:20:29.278Z,15.50
2023-05-18T17:22:57.500Z,15.40
2023-05-18T17:25:26.236Z,15.40
2023-05-18T17:27:55.515Z,15.20
2023-05-18T17:30:23.347Z,15.20
2023-05-18T17:32:51.247Z,15.10
2023-05-18T17:35:19.279Z,15.00
2023-05-18T17:37:48.666Z,15.00
2023-05-18T17:40:16.490Z,14.90
2023-05-18T17:42:44.294Z,14.90
2023-05-18T17:45:13.553Z,14.80
2023-05-18T17:47:42.071Z,14.80
2023-05-18T17:50:10.274Z,14.80
2023-05-18T17:52:38.114Z,14.70
2023-05-18T17:55:06.763Z,14.60
2023-05-18T17:57:34.716Z,14.60
2023-05-18T18:00:02.636Z,14.50
2023-05-18T18:02:31.770Z,14.40
2023-05-18T18:04:59.571Z,14.40
2023-05-18T18:07:27.354Z,14.30
2023-05-18T18:09:55.114Z,14.30
2023-05-18T18:12:22.972Z,14.20
2023-05-18T18:14:50.752Z,14.10
2023-05-18T18:17:18.955Z,14.10
2023-05-18T18:19:48.193Z,14.00
2023-05-18T18:22:15.970Z,13.90
2023-05-18T18:24:43.767Z,13.80
2023-05-18T18:27:11.680Z,13.70
2023-05-18T18:29:39.482Z,13.70
2023-05-18T18:32:08.323Z,13.60
2023-05-18T18:34:36.147Z,13.50
2023-05-18T18:37:05.615Z,13.50
2023-05-18T18:39:33.550Z,13.40
2023-05-18T18:42:01.407Z,13.30
2023-05-18T18:44:29.357Z,13.20
2023-05-18T18:46:57.200Z,13.10
2023-05-18T18:49:25.115Z,13.00
2023-05-18T18:51:53.101Z,13.00
2023-05-18T18:54:23.419Z,12.90
2023-05-18T18:56:51.250Z,12.80
2023-05-18T18:59:19.301Z,12.80
2023-05-18T19:01:47.309Z,12.80
2023-05-18T19:04:15.282Z,12.80
2023-05-18T19:06:43.731Z,12.80
2023-05-18T19:09:11.548Z,12.80
2023-05-18T19:11:40.865Z,12.80
2023-05-18T19:14:08.686Z,12.90
2023-05-18T19:16:36.690Z,12.90
2023-05-18T19:19:08.666Z,12.90
2023-05-18T19:21:36.719Z,12.90
2023-05-18T19:24:04.580Z,12.90
2023-05-18T19:26:32.769Z,12.90
2023-05-18T19:29:02.013Z,12.80
2023-05-18T19:31:31.518Z,12.80
2023-05-18T19:34:00.577Z,12.70
2023-05-18T19:36:28.582Z,12.60
2023-05-18T19:38:56.579Z,12.60
2023-05-18T19:41:24.883Z,12.50
2023-05-18T19:43:52.824Z,12.50
2023-05-18T19:46:22.020Z,12.50
2023-05-18T19:48:49.916Z,12.50
2023-05-18T19:51:18.425Z,12.40
2023-05-18T19:53:46.299Z,12.40
2023-05-18T19:56:14.178Z,12.40
2023-05-18T19:58:42.000Z,12.40
2023-05-18T20:01:10.365Z,12.30
2023-05-18T20:03:42.427Z,12.30
2023-05-18T20:06:11.407Z,12.30
2023-05-18T20:08:39.511Z,12.30
2023-05-18T20:11:07.307Z,12.30
2023-05-18T20:13:35.132Z,12.30
2023-05-18T20:16:03.752Z,12.20
2023-05-18T20:18:34.819Z,12.10
2023-05-18T20:21:04.162Z,12.00
2023-05-18T20:23:31.985Z,11.90
2023-05-18T20:26:00.518Z,11.80
2023-05-18T20:28:30.964Z,11.70
2023-05-18T20:30:59.161Z,11.60
2023-05-18T20:33:27.065Z,11.50
2023-05-18T20:35:54.943Z,11.40
2023-05-18T20:38:25.653Z,11.30
2023-05-18T20:40:53.791Z,11.30
2023-05-18T20:43:21.558Z,11.20
2023-05-18T20:45:51.230Z,11.20
2023-05-18T20:48:24.860Z,11.10
2023-05-18T20:50:52.727Z,11.10
2023-05-18T20:53:21.095Z,11.10
2023-05-18T20:55:50.941Z,11.10
2023-05-18T20:58:19.751Z,11.00
2023-05-18T21:00:47.809Z,11.00
2023-05-18T21:03:18.217Z,10.90
2023-05-18T21:05:49.418Z,10.80
2023-05-18T21:08:17.332Z,10.90
2023-05-18T21:10:45.132Z,10.80
2023-05-18T21:13:14.967Z,10.70
2023-05-18T21:15:42.895Z,10.70
2023-05-18T21:18:10.960Z,10.70
2023-05-18T21:20:38.838Z,10.70
2023-05-18T21:23:06.657Z,10.70
2023-05-18T21:25:34.569Z,10.80
2023-05-18T21:28:02.397Z,10.80
2023-05-18T21:30:32.363Z,10.80
2023-05-18T21:33:00.757Z,10.80
2023-05-18T21:35:28.777Z,10.80
2023-05-18T21:37:56.762Z,10.80
2023-05-18T21:40:24.549Z,10.70
2023-05-18T21:42:52.342Z,10.70
2023-05-18T21:45:22.312Z,10.70
2023-05-18T21:47:54.536Z,10.70
2023-05-18T21:50:22.387Z,10.70
2023-05-18T21:52:50.249Z,10.90
2023-05-18T21:55:19.245Z,10.70
2023-05-18T21:57:47.083Z,10.70
2023-05-18T22:00:17.928Z,10.60
2023-05-18T22:02:45.774Z,10.60
2023-05-18T22:05:15.046Z,10.60
2023-05-18T22:07:42.906Z,10.60
2023-05-18T22:10:11.587Z,10.50
2023-05-18T22:12:40.976Z,10.50
2023-05-18T22:15:10.343Z,10.40
2023-05-18T22:17:38.655Z,10.50
2023-05-18T22:20:09.486Z,10.50
2023-05-18T22:22:39.339Z,10.50
2023-05-18T22:25:08.142Z,10.40
2023-05-18T22:27:36.670Z,10.40
2023-05-18T22:30:06.054Z,10.40
2023-05-18T22:32:34.000Z,10.30
2023-05-18T22:35:02.261Z,10.30
2023-05-18T22:37:30.074Z,10.30
2023-05-18T22:39:59.238Z,10.20
2023-05-18T22:42:27.068Z,10.20
2023-05-18T22:44:54.881Z,10.20
2023-05-18T22:47:23.649Z,10.10
2023-05-18T22:49:51.802Z,10.10
2023-05-18T22:52:19.592Z,10.10
2023-05-18T22:54:47.547Z,10.10
2023-05-18T22:57:16.754Z,10.00
2023-05-18T22:59:44.564Z,10.00
2023-05-18T23:02:12.468Z,10.10
2023-05-18T23:04:40.370Z,10.10
2023-05-18T23:07:08.969Z,10.10
2023-05-18T23:09:39.652Z,10.00
2023-05-18T23:12:10.125Z,10.00
2023-05-18T23:14:39.367Z,9.90
2023-05-18T23:17:08.122Z,9.90
2023-05-18T23:19:36.106Z,9.90
2023-05-18T23:22:05.493Z,9.80
2023-05-18T23:24:33.389Z,9.70
2023-05-18T23:27:01.257Z,9.80
2023-05-18T23:29:29.051Z,9.70
2023-05-18T23:31:58.339Z,9.70
2023-05-18T23:34:27.433Z,9.70
2023-05-18T23:36:57.365Z,9.60
2023-05-18T23:39:27.600Z,9.60
2023-05-18T23:41:58.542Z,9.50
2023-05-18T23:44:27.044Z,9.50
2023-05-18T23:46:55.729Z,9.50
2023-05-18T23:49:25.782Z,9.50
2023-05-18T23:51:54.281Z,9.50
2023-05-18T23:54:23.460Z,9.50
2023-05-18T23:56:51.865Z,9.50
2023-05-18T23:59:20.362Z,9.50
